Hitra — 9HRO9 — position and weather

sailwx.info

Track history (hours):
 
Tides and Currents Weather Stations Pressure Air Temp Water Temp Dewpoint Dewpoint Depression Visibility Wind Speed Wind Dir Waves Ship Positions

Hitra

Last reported at 2017-Sep-20 19:55 UTC. Time now 2017-Sep-21 01:36 UTC.
Position N 36°10' W 005°23'.

Length 107 m; draft 5.1 m.

Type: Ship. MMSI: 249421000.

Date/timePositionNaut miles runAvg speedWind from/ knotsBaromVisibWave heightAir tempDewpointWater temp
2017-Sep-20 19:55N 36°10' W 005°23'2 0.3
2017-Sep-20 13:58N 36°08' W 005°24'3 7.3
2017-Sep-20 13:30N 36°05' W 005°23'4 7.1
2017-Sep-20 13:00N 36°03' W 005°19'510.0
2017-Sep-20 12:30N 36°04' W 005°13'12 0.3
2017-Sep-18 15:03N 35°53' W 005°07'612.0
2017-Sep-18 14:36N 35°54' W 005°14'112.3
2017-Sep-18 14:30N 35°55' W 005°16'3 6.1
2017-Sep-18 14:00N 35°54' W 005°19'0 0.0
2017-Sep-18 13:28N 35°54' W 005°19'0 0.0
2017-Sep-18 12:58N 35°54' W 005°19'0 0.0
2017-Sep-18 12:28N 35°54' W 005°19'0 0.0
2017-Sep-18 11:58N 35°54' W 005°19'0 0.0
2017-Sep-18 11:28N 35°54' W 005°19'0 0.0
2017-Sep-18 10:58N 35°54' W 005°19'0 0.0
2017-Sep-18 10:28N 35°54' W 005°19'0 0.0
2017-Sep-18 09:58N 35°54' W 005°19'0 0.0
2017-Sep-18 09:28N 35°54' W 005°19'0 0.0
2017-Sep-18 08:58N 35°54' W 005°19'0 0.0
2017-Sep-18 08:28N 35°54' W 005°19'0 0.0
2017-Sep-18 07:58N 35°54' W 005°19'0 0.0
2017-Sep-18 07:28N 35°54' W 005°19'0 0.0
2017-Sep-18 06:58N 35°54' W 005°19'0 0.0
2017-Sep-18 06:28N 35°54' W 005°19'0 0.0
2017-Sep-18 05:58N 35°54' W 005°19'0 0.0
2017-Sep-18 05:28N 35°54' W 005°19'0 0.0
2017-Sep-18 04:58N 35°54' W 005°19'0 0.0
2017-Sep-18 04:28N 35°54' W 005°19'0 0.0
2017-Sep-18 03:58N 35°54' W 005°19'0 0.0
2017-Sep-18 03:28N 35°54' W 005°19'0 0.0
2017-Sep-18 02:58N 35°54' W 005°19'0 0.0
2017-Sep-18 02:28N 35°54' W 005°19'0 0.0
2017-Sep-18 01:58N 35°54' W 005°19'0 0.0
2017-Sep-18 01:28N 35°54' W 005°19'0 0.0
2017-Sep-18 00:58N 35°54' W 005°19'0 0.0
2017-Sep-18 00:28N 35°54' W 005°19'0 0.0
2017-Sep-17 23:58N 35°54' W 005°19'0 0.0
2017-Sep-17 23:28N 35°54' W 005°19'0 0.8
2017-Sep-17 23:00N 35°54' W 005°19'1 2.6
2017-Sep-17 22:30N 35°55' W 005°19'3 5.9
2017-Sep-17 22:00N 35°58' W 005°19'5 9.5
2017-Sep-17 21:30N 36°02' W 005°21'610.8
2017-Sep-17 20:55N 36°08' W 005°24'2 4.5
2017-Sep-17 20:24N 36°11' W 005°24'0 0.0
2017-Sep-17 18:42N 36°11' W 005°24'0 0.0
2017-Sep-17 18:30N 36°11' W 005°24'0 0.0
2017-Sep-17 18:00N 36°11' W 005°24'0 0.0
2017-Sep-17 17:30N 36°11' W 005°24'0 0.0
2017-Sep-17 16:54N 36°11' W 005°24'0 0.0
2017-Sep-17 16:30N 36°11' W 005°24'0 0.0
2017-Sep-17 15:57N 36°11' W 005°24'0 0.0
2017-Sep-17 15:27N 36°11' W 005°24'0 0.0
2017-Sep-17 15:00N 36°11' W 005°24'0 0.0
2017-Sep-17 00:29N 36°11' W 005°24'2 0.4
2017-Sep-16 19:46N 36°09' W 005°26'0 0.0
2017-Sep-15 20:22N 36°09' W 005°26'4 0.4
2017-Sep-15 11:10N 36°06' W 005°23'2 9.0
2017-Sep-15 11:00N 36°05' W 005°23'510.5
2017-Sep-15 10:30N 35°60' W 005°23'713.6
2017-Sep-15 10:00N 35°57' W 005°31'6110.8
2017-Sep-15 04:22N 36°30' W 006°34'59 1.3
2017-Sep-13 06:11N 35°59' W 005°31'310.5
2017-Sep-13 05:55N 36°00' W 005°28'4 9.3
2017-Sep-13 05:31N 36°03' W 005°24'610.1
2017-Sep-13 04:56N 36°09' W 005°24'2 3.6
2017-Sep-13 04:23N 36°11' W 005°24'0 0.0
2017-Sep-13 03:59N 36°11' W 005°24'0 0.0
2017-Sep-13 03:29N 36°11' W 005°24'0 0.0
2017-Sep-13 02:59N 36°11' W 005°24'0 0.0
2017-Sep-13 02:29N 36°11' W 005°24'0 0.0
2017-Sep-13 01:59N 36°11' W 005°24'0 0.0
2017-Sep-13 01:29N 36°11' W 005°24'0 0.0
2017-Sep-13 00:59N 36°11' W 005°24'0 0.0
2017-Sep-13 00:29N 36°11' W 005°24'0 0.0
2017-Sep-12 23:59N 36°11' W 005°24'0 0.0
2017-Sep-12 23:29N 36°11' W 005°24'0 0.0
2017-Sep-12 22:59N 36°11' W 005°24'0 0.0
2017-Sep-12 21:05N 36°11' W 005°24'0 0.0
2017-Sep-12 20:59N 36°11' W 005°24'0 0.0
2017-Sep-12 20:26N 36°11' W 005°24'0 0.0
2017-Sep-12 19:59N 36°11' W 005°24'0 0.0
2017-Sep-12 19:29N 36°11' W 005°24'0 0.0
2017-Sep-12 18:59N 36°11' W 005°24'0 0.0
2017-Sep-12 18:29N 36°11' W 005°24'0 0.0
2017-Sep-12 17:59N 36°11' W 005°24'0 0.0
2017-Sep-12 17:29N 36°11' W 005°24'0 0.0
2017-Sep-12 16:59N 36°11' W 005°24'0 0.0
2017-Sep-12 16:29N 36°11' W 005°24'0 0.0
2017-Sep-12 15:59N 36°11' W 005°24'0 0.0
2017-Sep-12 15:23N 36°11' W 005°24'0 0.0
2017-Sep-12 14:59N 36°11' W 005°24'0 0.0
2017-Sep-12 14:29N 36°11' W 005°24'0 0.0
2017-Sep-12 13:44N 36°11' W 005°24'0 0.0
2017-Sep-12 13:26N 36°11' W 005°24'0 0.0
2017-Sep-12 12:59N 36°11' W 005°24'0 0.0
2017-Sep-12 11:02N 36°11' W 005°24'0 0.0
2017-Sep-12 10:53N 36°11' W 005°24'0 0.0
2017-Sep-12 10:26N 36°11' W 005°24'0 0.0
2017-Sep-12 09:53N 36°11' W 005°24'0 0.0
2017-Sep-12 09:29N 36°11' W 005°24'0 0.0
2017-Sep-12 08:56N 36°11' W 005°24'0 0.0
2017-Sep-12 08:26N 36°11' W 005°24'0 0.0
2017-Sep-12 07:56N 36°11' W 005°24'0 0.0
2017-Sep-12 07:29N 36°11' W 005°24'0 0.0
2017-Sep-12 06:50N 36°11' W 005°24'0 0.0
2017-Sep-12 06:23N 36°11' W 005°24'0 0.0
2017-Sep-12 05:56N 36°11' W 005°24'0 0.0
2017-Sep-12 05:29N 36°11' W 005°24'0 0.0
2017-Sep-12 04:59N 36°11' W 005°24'0 0.0
2017-Sep-12 04:29N 36°11' W 005°24'0 0.0
2017-Sep-12 03:59N 36°11' W 005°24'0 0.0
2017-Sep-12 03:29N 36°11' W 005°24'0 0.0
2017-Sep-12 02:59N 36°11' W 005°24'0 0.0
2017-Sep-12 02:29N 36°11' W 005°24'0 0.0
2017-Sep-12 01:59N 36°11' W 005°24'0 0.0
2017-Sep-12 01:29N 36°11' W 005°24'0 0.0
2017-Sep-12 00:59N 36°11' W 005°24'0 0.0
2017-Sep-12 00:26N 36°11' W 005°24'0 0.0
2017-Sep-11 23:59N 36°11' W 005°24'0 0.0
2017-Sep-11 23:29N 36°11' W 005°24'1 3.0
2017-Sep-11 23:00N 36°10' W 005°26'0 0.3
2017-Sep-11 22:30N 36°10' W 005°26'0 0.0
2017-Sep-11 22:00N 36°10' W 005°26'0 0.0
2017-Sep-11 21:30N 36°10' W 005°26'0 0.0
2017-Sep-11 21:00N 36°10' W 005°26'0 0.0
2017-Sep-11 20:30N 36°10' W 005°26'0 0.1
2017-Sep-11 20:00N 36°10' W 005°26'0 0.1
2017-Sep-11 19:30N 36°10' W 005°26'0 0.1
2017-Sep-11 19:00N 36°10' W 005°26'0 0.0
2017-Sep-11 18:30N 36°10' W 005°26'0 0.0
2017-Sep-11 18:00N 36°10' W 005°26'0 0.0
2017-Sep-11 17:27N 36°10' W 005°26'0 0.1
2017-Sep-11 16:54N 36°10' W 005°26'0 0.1
2017-Sep-11 16:30N 36°10' W 005°26'0 0.0
2017-Sep-11 16:00N 36°10' W 005°26'0 0.1
2017-Sep-11 14:57N 36°10' W 005°26'0 0.0
2017-Sep-11 14:30N 36°10' W 005°26'0 0.0
2017-Sep-11 13:57N 36°10' W 005°26'0 0.1
2017-Sep-11 13:24N 36°10' W 005°26'0 0.0
2017-Sep-11 13:00N 36°10' W 005°26'0 0.0
2017-Sep-11 02:21N 36°10' W 005°26'0 0.0
2017-Sep-11 01:54N 36°10' W 005°26'0 0.0
2017-Sep-10 22:12N 36°10' W 005°26'0 0.1
2017-Sep-10 22:00N 36°10' W 005°26'  
Track history (hours):
 
Tides and Currents Weather Stations Pressure Air Temp Water Temp Dewpoint Dewpoint Depression Visibility Wind Speed Wind Dir Waves Ship Positions

Hitra

Last reported at 2017-Sep-20 19:55 UTC. Time now 2017-Sep-21 01:36 UTC.
Position N 36°10' W 005°23'.

Length 107 m; draft 5.1 m.

Type: Ship. MMSI: 249421000.

Date/timePositionNaut miles runAvg speedWind from/ knotsBaromVisibWave heightAir tempDewpointWater temp
2017-Sep-20 19:55N 36°10' W 005°23'2 0.3
2017-Sep-20 13:58N 36°08' W 005°24'3 7.3
2017-Sep-20 13:30N 36°05' W 005°23'4 7.1
2017-Sep-20 13:00N 36°03' W 005°19'510.0
2017-Sep-20 12:30N 36°04' W 005°13'12 0.3
2017-Sep-18 15:03N 35°53' W 005°07'612.0
2017-Sep-18 14:36N 35°54' W 005°14'112.3
2017-Sep-18 14:30N 35°55' W 005°16'3 6.1
2017-Sep-18 14:00N 35°54' W 005°19'0 0.0
2017-Sep-18 13:28N 35°54' W 005°19'0 0.0
2017-Sep-18 12:58N 35°54' W 005°19'0 0.0
2017-Sep-18 12:28N 35°54' W 005°19'0 0.0
2017-Sep-18 11:58N 35°54' W 005°19'0 0.0
2017-Sep-18 11:28N 35°54' W 005°19'0 0.0
2017-Sep-18 10:58N 35°54' W 005°19'0 0.0
2017-Sep-18 10:28N 35°54' W 005°19'0 0.0
2017-Sep-18 09:58N 35°54' W 005°19'0 0.0
2017-Sep-18 09:28N 35°54' W 005°19'0 0.0
2017-Sep-18 08:58N 35°54' W 005°19'0 0.0
2017-Sep-18 08:28N 35°54' W 005°19'0 0.0
2017-Sep-18 07:58N 35°54' W 005°19'0 0.0
2017-Sep-18 07:28N 35°54' W 005°19'0 0.0
2017-Sep-18 06:58N 35°54' W 005°19'0 0.0
2017-Sep-18 06:28N 35°54' W 005°19'0 0.0
2017-Sep-18 05:58N 35°54' W 005°19'0 0.0
2017-Sep-18 05:28N 35°54' W 005°19'0 0.0
2017-Sep-18 04:58N 35°54' W 005°19'0 0.0
2017-Sep-18 04:28N 35°54' W 005°19'0 0.0
2017-Sep-18 03:58N 35°54' W 005°19'0 0.0
2017-Sep-18 03:28N 35°54' W 005°19'0 0.0
2017-Sep-18 02:58N 35°54' W 005°19'0 0.0
2017-Sep-18 02:28N 35°54' W 005°19'0 0.0
2017-Sep-18 01:58N 35°54' W 005°19'0 0.0
2017-Sep-18 01:28N 35°54' W 005°19'0 0.0
2017-Sep-18 00:58N 35°54' W 005°19'0 0.0
2017-Sep-18 00:28N 35°54' W 005°19'0 0.0
2017-Sep-17 23:58N 35°54' W 005°19'0 0.0
2017-Sep-17 23:28N 35°54' W 005°19'0 0.8
2017-Sep-17 23:00N 35°54' W 005°19'1 2.6
2017-Sep-17 22:30N 35°55' W 005°19'3 5.9
2017-Sep-17 22:00N 35°58' W 005°19'5 9.5
2017-Sep-17 21:30N 36°02' W 005°21'610.8
2017-Sep-17 20:55N 36°08' W 005°24'2 4.5
2017-Sep-17 20:24N 36°11' W 005°24'0 0.0
2017-Sep-17 18:42N 36°11' W 005°24'0 0.0
2017-Sep-17 18:30N 36°11' W 005°24'0 0.0
2017-Sep-17 18:00N 36°11' W 005°24'0 0.0
2017-Sep-17 17:30N 36°11' W 005°24'0 0.0
2017-Sep-17 16:54N 36°11' W 005°24'0 0.0
2017-Sep-17 16:30N 36°11' W 005°24'0 0.0
2017-Sep-17 15:57N 36°11' W 005°24'0 0.0
2017-Sep-17 15:27N 36°11' W 005°24'0 0.0
2017-Sep-17 15:00N 36°11' W 005°24'0 0.0
2017-Sep-17 00:29N 36°11' W 005°24'2 0.4
2017-Sep-16 19:46N 36°09' W 005°26'0 0.0
2017-Sep-15 20:22N 36°09' W 005°26'4 0.4
2017-Sep-15 11:10N 36°06' W 005°23'2 9.0
2017-Sep-15 11:00N 36°05' W 005°23'510.5
2017-Sep-15 10:30N 35°60' W 005°23'713.6
2017-Sep-15 10:00N 35°57' W 005°31'6110.8
2017-Sep-15 04:22N 36°30' W 006°34'59 1.3
2017-Sep-13 06:11N 35°59' W 005°31'310.5
2017-Sep-13 05:55N 36°00' W 005°28'4 9.3
2017-Sep-13 05:31N 36°03' W 005°24'610.1
2017-Sep-13 04:56N 36°09' W 005°24'2 3.6
2017-Sep-13 04:23N 36°11' W 005°24'0 0.0
2017-Sep-13 03:59N 36°11' W 005°24'0 0.0
2017-Sep-13 03:29N 36°11' W 005°24'0 0.0
2017-Sep-13 02:59N 36°11' W 005°24'0 0.0
2017-Sep-13 02:29N 36°11' W 005°24'0 0.0
2017-Sep-13 01:59N 36°11' W 005°24'0 0.0
2017-Sep-13 01:29N 36°11' W 005°24'0 0.0
2017-Sep-13 00:59N 36°11' W 005°24'0 0.0
2017-Sep-13 00:29N 36°11' W 005°24'0 0.0
2017-Sep-12 23:59N 36°11' W 005°24'0 0.0
2017-Sep-12 23:29N 36°11' W 005°24'0 0.0
2017-Sep-12 22:59N 36°11' W 005°24'0 0.0
2017-Sep-12 21:05N 36°11' W 005°24'0 0.0
2017-Sep-12 20:59N 36°11' W 005°24'0 0.0
2017-Sep-12 20:26N 36°11' W 005°24'0 0.0
2017-Sep-12 19:59N 36°11' W 005°24'0 0.0
2017-Sep-12 19:29N 36°11' W 005°24'0 0.0
2017-Sep-12 18:59N 36°11' W 005°24'0 0.0
2017-Sep-12 18:29N 36°11' W 005°24'0 0.0
2017-Sep-12 17:59N 36°11' W 005°24'0 0.0
2017-Sep-12 17:29N 36°11' W 005°24'0 0.0
2017-Sep-12 16:59N 36°11' W 005°24'0 0.0
2017-Sep-12 16:29N 36°11' W 005°24'0 0.0
2017-Sep-12 15:59N 36°11' W 005°24'0 0.0
2017-Sep-12 15:23N 36°11' W 005°24'0 0.0
2017-Sep-12 14:59N 36°11' W 005°24'0 0.0
2017-Sep-12 14:29N 36°11' W 005°24'0 0.0
2017-Sep-12 13:44N 36°11' W 005°24'0 0.0
2017-Sep-12 13:26N 36°11' W 005°24'0 0.0
2017-Sep-12 12:59N 36°11' W 005°24'0 0.0
2017-Sep-12 11:02N 36°11' W 005°24'0 0.0
2017-Sep-12 10:53N 36°11' W 005°24'0 0.0
2017-Sep-12 10:26N 36°11' W 005°24'0 0.0
2017-Sep-12 09:53N 36°11' W 005°24'0 0.0
2017-Sep-12 09:29N 36°11' W 005°24'0 0.0
2017-Sep-12 08:56N 36°11' W 005°24'0 0.0
2017-Sep-12 08:26N 36°11' W 005°24'0 0.0
2017-Sep-12 07:56N 36°11' W 005°24'0 0.0
2017-Sep-12 07:29N 36°11' W 005°24'0 0.0
2017-Sep-12 06:50N 36°11' W 005°24'0 0.0
2017-Sep-12 06:23N 36°11' W 005°24'0 0.0
2017-Sep-12 05:56N 36°11' W 005°24'0 0.0
2017-Sep-12 05:29N 36°11' W 005°24'0 0.0
2017-Sep-12 04:59N 36°11' W 005°24'0 0.0
2017-Sep-12 04:29N 36°11' W 005°24'0 0.0
2017-Sep-12 03:59N 36°11' W 005°24'0 0.0
2017-Sep-12 03:29N 36°11' W 005°24'0 0.0
2017-Sep-12 02:59N 36°11' W 005°24'0 0.0
2017-Sep-12 02:29N 36°11' W 005°24'0 0.0
2017-Sep-12 01:59N 36°11' W 005°24'0 0.0
2017-Sep-12 01:29N 36°11' W 005°24'0 0.0
2017-Sep-12 00:59N 36°11' W 005°24'0 0.0
2017-Sep-12 00:26N 36°11' W 005°24'0 0.0
2017-Sep-11 23:59N 36°11' W 005°24'0 0.0
2017-Sep-11 23:29N 36°11' W 005°24'1 3.0
2017-Sep-11 23:00N 36°10' W 005°26'0 0.3
2017-Sep-11 22:30N 36°10' W 005°26'0 0.0
2017-Sep-11 22:00N 36°10' W 005°26'0 0.0
2017-Sep-11 21:30N 36°10' W 005°26'0 0.0
2017-Sep-11 21:00N 36°10' W 005°26'0 0.0
2017-Sep-11 20:30N 36°10' W 005°26'0 0.1
2017-Sep-11 20:00N 36°10' W 005°26'0 0.1
2017-Sep-11 19:30N 36°10' W 005°26'0 0.1
2017-Sep-11 19:00N 36°10' W 005°26'0 0.0
2017-Sep-11 18:30N 36°10' W 005°26'0 0.0
2017-Sep-11 18:00N 36°10' W 005°26'0 0.0
2017-Sep-11 17:27N 36°10' W 005°26'0 0.1
2017-Sep-11 16:54N 36°10' W 005°26'0 0.1
2017-Sep-11 16:30N 36°10' W 005°26'0 0.0
2017-Sep-11 16:00N 36°10' W 005°26'0 0.1
2017-Sep-11 14:57N 36°10' W 005°26'0 0.0
2017-Sep-11 14:30N 36°10' W 005°26'0 0.0
2017-Sep-11 13:57N 36°10' W 005°26'0 0.1
2017-Sep-11 13:24N 36°10' W 005°26'0 0.0
2017-Sep-11 13:00N 36°10' W 005°26'0 0.0
2017-Sep-11 02:21N 36°10' W 005°26'0 0.0
2017-Sep-11 01:54N 36°10' W 005°26'0 0.0
2017-Sep-10 22:12N 36°10' W 005°26'0 0.1
2017-Sep-10 22:00N 36°10' W 005°26'  

Dump ship's entire track history